createdAt,value
2022-12-06T00:00:10.465Z,1007.29
2022-12-06T00:01:10.465Z,1007.27
2022-12-06T00:02:10.469Z,1007.25
2022-12-06T00:03:10.476Z,1007.30
2022-12-06T00:04:10.413Z,1007.32
2022-12-06T00:05:10.402Z,1007.34
2022-12-06T00:06:10.387Z,1007.30
2022-12-06T00:07:10.379Z,1007.32
2022-12-06T00:08:10.416Z,1007.33
2022-12-06T00:09:10.352Z,1007.28
2022-12-06T00:10:10.335Z,1007.27
2022-12-06T00:11:10.321Z,1007.27
2022-12-06T00:12:10.330Z,1007.28
2022-12-06T00:13:10.296Z,1007.29
2022-12-06T00:14:10.314Z,1007.28
2022-12-06T00:15:10.276Z,1007.24
2022-12-06T00:16:10.285Z,1007.27
2022-12-06T00:17:10.245Z,1007.27
2022-12-06T00:18:10.231Z,1007.26
2022-12-06T00:19:10.223Z,1007.27
2022-12-06T00:20:10.210Z,1007.27
2022-12-06T00:21:10.201Z,1007.20
2022-12-06T00:22:10.185Z,1007.22
2022-12-06T00:23:10.174Z,1007.25
2022-12-06T00:24:10.159Z,1007.24
2022-12-06T00:25:10.149Z,1007.20
2022-12-06T00:26:10.131Z,1007.16
2022-12-06T00:27:10.124Z,1007.15
2022-12-06T00:28:10.107Z,1007.18
2022-12-06T00:29:10.096Z,1007.14
2022-12-06T00:30:10.082Z,1007.16
2022-12-06T00:31:10.072Z,1007.17
2022-12-06T00:32:13.516Z,1007.14
2022-12-06T00:33:10.041Z,1007.12
2022-12-06T00:34:10.030Z,1007.15
2022-12-06T00:35:10.020Z,1007.15
2022-12-06T00:36:10.004Z,1007.11
2022-12-06T00:37:09.996Z,1007.11
2022-12-06T00:38:09.977Z,1007.13
2022-12-06T00:39:09.969Z,1007.09
2022-12-06T00:40:09.959Z,1007.12
2022-12-06T00:41:09.944Z,1007.11
2022-12-06T00:42:09.932Z,1007.13
2022-12-06T00:43:09.916Z,1007.12
2022-12-06T00:44:09.904Z,1007.18
2022-12-06T00:45:09.892Z,1007.16
2022-12-06T00:46:09.916Z,1007.19
2022-12-06T00:47:09.868Z,1007.19
2022-12-06T00:48:09.854Z,1007.15
2022-12-06T00:49:09.850Z,1007.15
2022-12-06T00:50:09.841Z,1007.15
2022-12-06T00:51:09.819Z,1007.15
2022-12-06T00:52:09.803Z,1007.12
2022-12-06T00:53:09.789Z,1007.09
2022-12-06T00:54:09.778Z,1007.10
2022-12-06T00:55:09.766Z,1007.04
2022-12-06T00:56:09.758Z,1007.05
2022-12-06T00:57:09.743Z,1007.05
2022-12-06T00:58:09.727Z,1007.03
2022-12-06T00:59:09.717Z,1007.03
2022-12-06T01:00:09.702Z,1007.01
2022-12-06T01:01:09.742Z,1007.04
2022-12-06T01:02:09.680Z,1006.99
2022-12-06T01:03:09.713Z,1007.01
2022-12-06T01:04:09.653Z,1006.99
2022-12-06T01:05:09.642Z,1006.98
2022-12-06T01:06:09.628Z,1007.01
2022-12-06T01:07:09.615Z,1007.01
2022-12-06T01:08:09.661Z,1007.04
2022-12-06T01:09:09.591Z,1007.06
2022-12-06T01:10:09.579Z,1007.04
2022-12-06T01:11:09.564Z,1007.09
2022-12-06T01:12:09.572Z,1007.12
2022-12-06T01:13:09.537Z,1007.13
2022-12-06T01:14:09.527Z,1007.12
2022-12-06T01:15:09.503Z,1007.13
2022-12-06T01:16:09.562Z,1007.15
2022-12-06T01:17:09.574Z,1007.17
2022-12-06T01:18:09.472Z,1007.13
2022-12-06T01:19:09.461Z,1007.19
2022-12-06T01:20:09.448Z,1007.20
2022-12-06T01:21:09.440Z,1007.17
2022-12-06T01:22:09.426Z,1007.21
2022-12-06T01:23:09.410Z,1007.21
2022-12-06T01:24:09.399Z,1007.21
2022-12-06T01:25:09.387Z,1007.25
2022-12-06T01:26:09.370Z,1007.23
2022-12-06T01:27:09.363Z,1007.18
2022-12-06T01:28:09.345Z,1007.24
2022-12-06T01:29:09.335Z,1007.25
2022-12-06T01:30:09.321Z,1007.23
2022-12-06T01:31:09.365Z,1007.19
2022-12-06T01:32:09.294Z,1007.21
2022-12-06T01:33:09.287Z,1007.27
2022-12-06T01:34:09.273Z,1007.32
2022-12-06T01:35:09.261Z,1007.29
2022-12-06T01:36:09.247Z,1007.31
2022-12-06T01:37:09.233Z,1007.32
2022-12-06T01:38:09.216Z,1007.32
2022-12-06T01:39:09.205Z,1007.32
2022-12-06T01:40:09.196Z,1007.33
2022-12-06T01:41:09.184Z,1007.33
2022-12-06T01:42:09.167Z,1007.32
2022-12-06T01:43:09.156Z,1007.32
2022-12-06T01:44:09.146Z,1007.30
2022-12-06T01:45:09.131Z,1007.33
2022-12-06T01:46:09.147Z,1007.35
2022-12-06T01:47:09.105Z,1007.35
2022-12-06T01:48:09.090Z,1007.33
2022-12-06T01:49:09.080Z,1007.32
2022-12-06T01:50:09.067Z,1007.33
2022-12-06T01:51:09.055Z,1007.33
2022-12-06T01:52:09.052Z,1007.34
2022-12-06T01:53:09.026Z,1007.30
2022-12-06T01:54:09.018Z,1007.29
2022-12-06T01:55:09.005Z,1007.26
2022-12-06T01:56:08.991Z,1007.26
2022-12-06T01:57:08.976Z,1007.25
2022-12-06T01:58:08.970Z,1007.27
2022-12-06T01:59:08.954Z,1007.26
2022-12-06T02:00:08.939Z,1007.27
2022-12-06T02:01:08.976Z,1007.27
2022-12-06T02:02:08.951Z,1007.22
2022-12-06T02:03:08.900Z,1007.24
2022-12-06T02:04:08.905Z,1007.23
2022-12-06T02:05:08.880Z,1007.28
2022-12-06T02:06:08.861Z,1007.24
2022-12-06T02:07:08.848Z,1007.24
2022-12-06T02:08:08.900Z,1007.26
2022-12-06T02:09:08.825Z,1007.22
2022-12-06T02:10:08.811Z,1007.23
2022-12-06T02:11:08.799Z,1007.21
2022-12-06T02:12:08.786Z,1007.21
2022-12-06T02:13:08.772Z,1007.19
2022-12-06T02:14:08.762Z,1007.21
2022-12-06T02:15:08.749Z,1007.16
2022-12-06T02:16:08.735Z,1007.19
2022-12-06T02:17:08.764Z,1007.17
2022-12-06T02:18:08.709Z,1007.12
2022-12-06T02:19:08.697Z,1007.14
2022-12-06T02:20:08.688Z,1007.11
2022-12-06T02:21:08.673Z,1007.05
2022-12-06T02:22:08.657Z,1007.09
2022-12-06T02:23:08.643Z,1007.07
2022-12-06T02:24:08.636Z,1007.02
2022-12-06T02:25:08.620Z,1007.03
2022-12-06T02:26:08.610Z,1006.99
2022-12-06T02:27:08.597Z,1007.03
2022-12-06T02:28:08.581Z,1007.02
2022-12-06T02:29:08.572Z,1007.01
2022-12-06T02:30:08.561Z,1007.02
2022-12-06T02:31:08.691Z,1007.05
2022-12-06T02:32:08.532Z,1007.05
2022-12-06T02:33:08.516Z,1007.04
2022-12-06T02:34:08.507Z,1007.02
2022-12-06T02:35:08.491Z,1007.03
2022-12-06T02:36:08.481Z,1006.99
2022-12-06T02:37:08.465Z,1007.01
2022-12-06T02:38:12.861Z,1007.02
2022-12-06T02:39:08.444Z,1007.01
2022-12-06T02:40:08.431Z,1007.03
2022-12-06T02:41:08.415Z,1006.99
2022-12-06T02:42:08.403Z,1007.00
2022-12-06T02:43:08.388Z,1006.95
2022-12-06T02:44:08.381Z,1006.94
2022-12-06T02:45:08.369Z,1006.97
2022-12-06T02:46:08.397Z,1006.97
2022-12-06T02:47:08.336Z,1006.98
2022-12-06T02:48:08.326Z,1007.03
2022-12-06T02:49:08.317Z,1007.04
2022-12-06T02:50:08.302Z,1007.05
2022-12-06T02:51:08.290Z,1007.06
2022-12-06T02:52:08.278Z,1007.04
2022-12-06T02:53:08.264Z,1007.05
2022-12-06T02:54:08.290Z,1007.04
2022-12-06T02:55:08.237Z,1006.98
2022-12-06T02:56:08.230Z,1007.00
2022-12-06T02:57:08.212Z,1006.99
2022-12-06T02:58:08.199Z,1006.99
2022-12-06T02:59:08.187Z,1006.99
2022-12-06T03:00:08.179Z,1007.00
2022-12-06T03:01:08.262Z,1006.96
2022-12-06T03:02:08.225Z,1006.97
2022-12-06T03:03:08.134Z,1007.00
2022-12-06T03:04:08.125Z,1006.96
2022-12-06T03:05:08.112Z,1007.01
2022-12-06T03:06:08.097Z,1007.00
2022-12-06T03:07:08.086Z,1006.97
2022-12-06T03:08:08.092Z,1006.95
2022-12-06T03:09:08.058Z,1006.97
2022-12-06T03:10:08.048Z,1006.99
2022-12-06T03:11:08.034Z,1006.98
2022-12-06T03:12:08.020Z,1006.95
2022-12-06T03:13:08.007Z,1006.98
2022-12-06T03:14:10.974Z,1006.96
2022-12-06T03:15:07.985Z,1006.94
2022-12-06T03:16:08.026Z,1006.92
2022-12-06T03:17:07.956Z,1006.90
2022-12-06T03:18:07.943Z,1006.91
2022-12-06T03:19:07.933Z,1006.95
2022-12-06T03:20:07.920Z,1006.93
2022-12-06T03:21:07.907Z,1006.96
2022-12-06T03:22:07.893Z,1006.96
2022-12-06T03:23:07.880Z,1006.92
2022-12-06T03:24:07.869Z,1006.95
2022-12-06T03:25:07.854Z,1006.95
2022-12-06T03:26:07.842Z,1006.92
2022-12-06T03:27:07.831Z,1006.93
2022-12-06T03:28:07.815Z,1006.92
2022-12-06T03:29:07.804Z,1006.99
2022-12-06T03:30:07.793Z,1006.90
2022-12-06T03:31:07.823Z,1006.90
2022-12-06T03:32:07.788Z,1006.90
2022-12-06T03:33:07.752Z,1006.85
2022-12-06T03:34:07.741Z,1006.87
2022-12-06T03:35:07.733Z,1006.87
2022-12-06T03:36:07.725Z,1006.89
2022-12-06T03:37:07.709Z,1006.88
2022-12-06T03:38:07.684Z,1006.85
2022-12-06T03:39:07.677Z,1006.86
2022-12-06T03:40:07.700Z,1006.88
2022-12-06T03:41:07.657Z,1006.91
2022-12-06T03:42:07.638Z,1006.88
2022-12-06T03:43:07.680Z,1006.82
2022-12-06T03:44:07.619Z,1006.81
2022-12-06T03:45:07.598Z,1006.80
2022-12-06T03:46:07.763Z,1006.78
2022-12-06T03:47:07.623Z,1006.78
2022-12-06T03:48:07.560Z,1006.75
2022-12-06T03:49:07.551Z,1006.74
2022-12-06T03:50:07.540Z,1006.76
2022-12-06T03:51:07.522Z,1006.72
2022-12-06T03:52:07.511Z,1006.76
2022-12-06T03:53:07.497Z,1006.71
2022-12-06T03:54:07.485Z,1006.74
2022-12-06T03:55:07.475Z,1006.73
2022-12-06T03:56:07.461Z,1006.75
2022-12-06T03:57:07.449Z,1006.69
2022-12-06T03:58:07.431Z,1006.70
2022-12-06T03:59:07.424Z,1006.71
2022-12-06T04:00:07.408Z,1006.70
2022-12-06T04:01:07.398Z,1006.71
2022-12-06T04:02:07.467Z,1006.71
2022-12-06T04:03:07.369Z,1006.69
2022-12-06T04:04:07.398Z,1006.71
2022-12-06T04:05:07.347Z,1006.74
2022-12-06T04:06:07.332Z,1006.76
2022-12-06T04:07:07.320Z,1006.72
2022-12-06T04:08:07.361Z,1006.72
2022-12-06T04:09:07.295Z,1006.70
2022-12-06T04:10:07.281Z,1006.70
2022-12-06T04:11:07.269Z,1006.69
2022-12-06T04:12:07.256Z,1006.65
2022-12-06T04:13:07.240Z,1006.61
2022-12-06T04:14:07.230Z,1006.66
2022-12-06T04:15:07.218Z,1006.64
2022-12-06T04:16:07.225Z,1006.60
2022-12-06T04:17:07.191Z,1006.56
2022-12-06T04:18:07.181Z,1006.55
2022-12-06T04:19:07.167Z,1006.54
2022-12-06T04:20:07.153Z,1006.52
2022-12-06T04:21:07.140Z,1006.54
2022-12-06T04:22:07.126Z,1006.54
2022-12-06T04:23:07.130Z,1006.55
2022-12-06T04:24:07.101Z,1006.57
2022-12-06T04:25:07.088Z,1006.52
2022-12-06T04:26:07.073Z,1006.57
2022-12-06T04:27:07.065Z,1006.50
2022-12-06T04:28:07.049Z,1006.50
2022-12-06T04:29:07.037Z,1006.47
2022-12-06T04:30:07.026Z,1006.49
2022-12-06T04:31:07.088Z,1006.48
2022-12-06T04:32:06.996Z,1006.47
2022-12-06T04:33:06.986Z,1006.43
2022-12-06T04:34:06.976Z,1006.48
2022-12-06T04:35:06.965Z,1006.43
2022-12-06T04:36:06.945Z,1006.44
2022-12-06T04:37:06.932Z,1006.48
2022-12-06T04:38:06.915Z,1006.41
2022-12-06T04:39:06.911Z,1006.40
2022-12-06T04:40:06.897Z,1006.39
2022-12-06T04:41:06.884Z,1006.36
2022-12-06T04:42:06.871Z,1006.39
2022-12-06T04:43:06.860Z,1006.35
2022-12-06T04:44:06.848Z,1006.35
2022-12-06T04:45:06.838Z,1006.37
2022-12-06T04:46:06.818Z,1006.37
2022-12-06T04:47:06.885Z,1006.36
2022-12-06T04:48:06.790Z,1006.33
2022-12-06T04:49:06.781Z,1006.36
2022-12-06T04:50:06.768Z,1006.33
2022-12-06T04:51:06.757Z,1006.34
2022-12-06T04:52:06.737Z,1006.33
2022-12-06T04:53:06.728Z,1006.36
2022-12-06T04:54:06.716Z,1006.38
2022-12-06T04:55:06.706Z,1006.38
2022-12-06T04:56:06.690Z,1006.38
2022-12-06T04:57:06.682Z,1006.39
2022-12-06T04:58:06.663Z,1006.39
2022-12-06T04:59:06.655Z,1006.41
2022-12-06T05:00:06.641Z,1006.40
2022-12-06T05:01:06.705Z,1006.37
2022-12-06T05:02:06.614Z,1006.39
2022-12-06T05:03:06.604Z,1006.41
2022-12-06T05:04:06.645Z,1006.40
2022-12-06T05:05:06.578Z,1006.41
2022-12-06T05:06:06.559Z,1006.37
2022-12-06T05:07:06.550Z,1006.39
2022-12-06T05:08:06.620Z,1006.41
2022-12-06T05:09:06.524Z,1006.42
2022-12-06T05:10:06.511Z,1006.43
2022-12-06T05:11:06.505Z,1006.40
2022-12-06T05:12:06.484Z,1006.43
2022-12-06T05:13:06.472Z,1006.46
2022-12-06T05:14:06.457Z,1006.46
2022-12-06T05:15:06.450Z,1006.47
2022-12-06T05:16:06.496Z,1006.46
2022-12-06T05:17:06.421Z,1006.42
2022-12-06T05:18:06.405Z,1006.41
2022-12-06T05:19:06.395Z,1006.42
2022-12-06T05:20:06.384Z,1006.46
2022-12-06T05:21:06.363Z,1006.43
2022-12-06T05:22:06.356Z,1006.41
2022-12-06T05:23:06.345Z,1006.40
2022-12-06T05:24:06.333Z,1006.43
2022-12-06T05:25:06.323Z,1006.41
2022-12-06T05:26:06.304Z,1006.42
2022-12-06T05:27:06.298Z,1006.44
2022-12-06T05:28:06.280Z,1006.41
2022-12-06T05:29:06.266Z,1006.45
2022-12-06T05:30:06.255Z,1006.47
2022-12-06T05:31:06.298Z,1006.46
2022-12-06T05:32:06.226Z,1006.47
2022-12-06T05:33:06.215Z,1006.48
2022-12-06T05:34:06.204Z,1006.47
2022-12-06T05:35:06.195Z,1006.46
2022-12-06T05:36:06.179Z,1006.45
2022-12-06T05:37:06.163Z,1006.48
2022-12-06T05:38:06.148Z,1006.48
2022-12-06T05:39:06.139Z,1006.50
2022-12-06T05:40:06.126Z,1006.46
2022-12-06T05:41:06.116Z,1006.51
2022-12-06T05:42:06.097Z,1006.55
2022-12-06T05:43:06.086Z,1006.52
2022-12-06T05:44:06.071Z,1006.54
2022-12-06T05:45:06.077Z,1006.55
2022-12-06T05:46:06.078Z,1006.53
2022-12-06T05:47:06.041Z,1006.55
2022-12-06T05:48:06.021Z,1006.56
2022-12-06T05:49:06.011Z,1006.54
2022-12-06T05:50:06.000Z,1006.54
2022-12-06T05:51:05.987Z,1006.53
2022-12-06T05:52:05.968Z,1006.57
2022-12-06T05:53:05.959Z,1006.53
2022-12-06T05:54:05.946Z,1006.53
2022-12-06T05:55:05.936Z,1006.53
2022-12-06T05:56:05.918Z,1006.53
2022-12-06T05:57:05.904Z,1006.55
2022-12-06T05:58:05.891Z,1006.55
2022-12-06T05:59:05.880Z,1006.54
2022-12-06T06:00:05.871Z,1006.56
2022-12-06T06:01:05.859Z,1006.55
2022-12-06T06:02:05.941Z,1006.52
2022-12-06T06:03:05.936Z,1006.56
2022-12-06T06:04:05.818Z,1006.55
2022-12-06T06:05:05.827Z,1006.51
2022-12-06T06:06:05.787Z,1006.51
2022-12-06T06:07:05.782Z,1006.53
2022-12-06T06:08:05.777Z,1006.52
2022-12-06T06:09:05.752Z,1006.53
2022-12-06T06:10:05.740Z,1006.52
2022-12-06T06:11:05.729Z,1006.54
2022-12-06T06:12:09.517Z,1006.51
2022-12-06T06:13:05.698Z,1006.50
2022-12-06T06:14:05.687Z,1006.51
2022-12-06T06:15:05.672Z,1006.57
2022-12-06T06:16:05.659Z,1006.58
2022-12-06T06:17:05.721Z,1006.56
2022-12-06T06:18:05.639Z,1006.55
2022-12-06T06:19:05.624Z,1006.57
2022-12-06T06:20:05.895Z,1006.57
2022-12-06T06:21:05.596Z,1006.58
2022-12-06T06:22:05.584Z,1006.57
2022-12-06T06:23:05.592Z,1006.55
2022-12-06T06:24:05.561Z,1006.57
2022-12-06T06:25:05.545Z,1006.57
2022-12-06T06:26:05.531Z,1006.59
2022-12-06T06:27:05.524Z,1006.58
2022-12-06T06:28:05.507Z,1006.60
2022-12-06T06:29:05.494Z,1006.57
2022-12-06T06:30:05.481Z,1006.61
2022-12-06T06:31:05.468Z,1006.62
2022-12-06T06:32:05.550Z,1006.60
2022-12-06T06:33:05.442Z,1006.63
2022-12-06T06:34:05.426Z,1006.61
2022-12-06T06:35:05.416Z,1006.60
2022-12-06T06:36:05.399Z,1006.61
2022-12-06T06:37:05.390Z,1006.56
2022-12-06T06:38:05.382Z,1006.59
2022-12-06T06:39:05.366Z,1006.60
2022-12-06T06:40:05.349Z,1006.59
2022-12-06T06:41:05.341Z,1006.63
2022-12-06T06:42:05.322Z,1006.61
2022-12-06T06:43:05.315Z,1006.62
2022-12-06T06:44:05.303Z,1006.61
2022-12-06T06:45:05.287Z,1006.62
2022-12-06T06:46:05.331Z,1006.61
2022-12-06T06:47:05.260Z,1006.62
2022-12-06T06:48:05.249Z,1006.63
2022-12-06T06:49:05.236Z,1006.66
2022-12-06T06:50:05.222Z,1006.67
2022-12-06T06:51:05.210Z,1006.71
2022-12-06T06:52:05.196Z,1006.72
2022-12-06T06:53:05.214Z,1006.71
2022-12-06T06:54:05.171Z,1006.74
2022-12-06T06:55:05.157Z,1006.75
2022-12-06T06:56:05.141Z,1006.77
2022-12-06T06:57:05.132Z,1006.79
2022-12-06T06:58:05.138Z,1006.75
2022-12-06T06:59:05.103Z,1006.76
2022-12-06T07:00:05.095Z,1006.74
2022-12-06T07:01:05.133Z,1006.77
2022-12-06T07:02:05.101Z,1006.73
2022-12-06T07:03:05.054Z,1006.76
2022-12-06T07:04:05.051Z,1006.79
2022-12-06T07:05:05.037Z,1006.77
2022-12-06T07:06:05.028Z,1006.73
2022-12-06T07:07:05.019Z,1006.73
2022-12-06T07:08:05.035Z,1006.71
2022-12-06T07:09:04.974Z,1006.69
2022-12-06T07:10:04.963Z,1006.72
2022-12-06T07:11:04.949Z,1006.67
2022-12-06T07:12:04.934Z,1006.72
2022-12-06T07:13:04.924Z,1006.72
2022-12-06T07:14:04.918Z,1006.73
2022-12-06T07:15:04.901Z,1006.74
2022-12-06T07:16:04.881Z,1006.73
2022-12-06T07:17:04.929Z,1006.69
2022-12-06T07:18:04.855Z,1006.67
2022-12-06T07:19:09.005Z,1006.68
2022-12-06T07:20:04.833Z,1006.67
2022-12-06T07:21:04.818Z,1006.69
2022-12-06T07:22:04.804Z,1006.70
2022-12-06T07:23:04.791Z,1006.67
2022-12-06T07:24:04.780Z,1006.71
2022-12-06T07:25:04.768Z,1006.68
2022-12-06T07:26:04.750Z,1006.72
2022-12-06T07:27:04.740Z,1006.70
2022-12-06T07:28:04.730Z,1006.67
2022-12-06T07:29:04.712Z,1006.69
2022-12-06T07:30:04.747Z,1006.73
2022-12-06T07:31:04.726Z,1006.70
2022-12-06T07:32:04.674Z,1006.70
2022-12-06T07:33:04.663Z,1006.75
2022-12-06T07:34:04.649Z,1006.71
2022-12-06T07:35:04.638Z,1006.75
2022-12-06T07:36:11.924Z,1006.73
2022-12-06T07:37:04.609Z,1006.76
2022-12-06T07:38:04.600Z,1006.75
2022-12-06T07:39:06.808Z,1006.75
2022-12-06T07:40:04.574Z,1006.74
2022-12-06T07:41:05.276Z,1006.73
2022-12-06T07:42:04.543Z,1006.69
2022-12-06T07:43:04.534Z,1006.70
2022-12-06T07:44:04.519Z,1006.70
2022-12-06T07:45:04.507Z,1006.71
2022-12-06T07:46:04.613Z,1006.73
2022-12-06T07:47:04.478Z,1006.69
2022-12-06T07:48:04.470Z,1006.75
2022-12-06T07:49:04.454Z,1006.72
2022-12-06T07:50:04.442Z,1006.72
2022-12-06T07:51:04.431Z,1006.70
2022-12-06T07:52:04.421Z,1006.69
2022-12-06T07:53:04.402Z,1006.70
2022-12-06T07:54:04.390Z,1006.69
2022-12-06T07:55:04.378Z,1006.69
2022-12-06T07:56:04.362Z,1006.75
2022-12-06T07:57:04.348Z,1006.75
2022-12-06T07:58:04.338Z,1006.72
2022-12-06T07:59:04.322Z,1006.77
2022-12-06T08:00:04.318Z,1006.76
2022-12-06T08:01:04.533Z,1006.74
2022-12-06T08:02:04.322Z,1006.75
2022-12-06T08:03:04.271Z,1006.76
2022-12-06T08:04:04.300Z,1006.79
2022-12-06T08:05:04.248Z,1006.76
2022-12-06T08:06:04.237Z,1006.79
2022-12-06T08:07:04.219Z,1006.78
2022-12-06T08:08:04.267Z,1006.77
2022-12-06T08:09:04.193Z,1006.80
2022-12-06T08:10:04.428Z,1006.77
2022-12-06T08:11:04.184Z,1006.78
2022-12-06T08:12:04.155Z,1006.72
2022-12-06T08:13:04.143Z,1006.76
2022-12-06T08:14:04.135Z,1006.78
2022-12-06T08:15:04.118Z,1006.71
2022-12-06T08:16:04.149Z,1006.74
2022-12-06T08:17:04.089Z,1006.75
2022-12-06T08:18:04.081Z,1006.68
2022-12-06T08:19:04.082Z,1006.73
2022-12-06T08:20:04.247Z,1006.73
2022-12-06T08:21:04.039Z,1006.70
2022-12-06T08:22:04.029Z,1006.70
2022-12-06T08:23:04.015Z,1006.66
2022-12-06T08:24:04.002Z,1006.66
2022-12-06T08:25:03.988Z,1006.71
2022-12-06T08:26:03.965Z,1006.74
2022-12-06T08:27:03.961Z,1006.69
2022-12-06T08:28:03.951Z,1006.64
2022-12-06T08:29:03.934Z,1006.67
2022-12-06T08:30:04.069Z,1006.70
2022-12-06T08:31:04.004Z,1006.67
2022-12-06T08:32:03.900Z,1006.66
2022-12-06T08:33:03.884Z,1006.67
2022-12-06T08:34:03.872Z,1006.64
2022-12-06T08:35:03.868Z,1006.67
2022-12-06T08:36:03.847Z,1006.65
2022-12-06T08:37:03.952Z,1006.67
2022-12-06T08:38:03.835Z,1006.68
2022-12-06T08:39:03.805Z,1006.66
2022-12-06T08:40:03.797Z,1006.68
2022-12-06T08:41:03.783Z,1006.71
2022-12-06T08:42:03.771Z,1006.69
2022-12-06T08:43:03.757Z,1006.72
2022-12-06T08:44:03.743Z,1006.73
2022-12-06T08:45:03.733Z,1006.69
2022-12-06T08:46:03.762Z,1006.70
2022-12-06T08:47:03.706Z,1006.75
2022-12-06T08:48:03.695Z,1006.71
2022-12-06T08:49:03.678Z,1006.77
2022-12-06T08:50:03.785Z,1006.75
2022-12-06T08:51:03.668Z,1006.76
2022-12-06T08:52:03.642Z,1006.79
2022-12-06T08:53:03.628Z,1006.76
2022-12-06T08:54:03.615Z,1006.78
2022-12-06T08:55:03.621Z,1006.78
2022-12-06T08:56:03.590Z,1006.81
2022-12-06T08:57:03.573Z,1006.79
2022-12-06T08:58:03.571Z,1006.79
2022-12-06T08:59:03.550Z,1006.79
2022-12-06T09:00:03.746Z,1006.78
2022-12-06T09:01:03.528Z,1006.79
2022-12-06T09:02:03.597Z,1006.82
2022-12-06T09:03:03.497Z,1006.81
2022-12-06T09:04:03.564Z,1006.79
2022-12-06T09:05:03.632Z,1006.78
2022-12-06T09:06:03.462Z,1006.82
2022-12-06T09:07:06.326Z,1006.79
2022-12-06T09:08:03.474Z,1006.78
2022-12-06T09:09:03.427Z,1006.81
2022-12-06T09:10:03.625Z,1006.85
2022-12-06T09:11:03.396Z,1006.82
2022-12-06T09:12:03.386Z,1006.84
2022-12-06T09:13:03.402Z,1006.90
2022-12-06T09:14:03.360Z,1006.88
2022-12-06T09:15:03.355Z,1006.87
2022-12-06T09:16:03.402Z,1006.89
2022-12-06T09:17:03.331Z,1006.89
2022-12-06T09:18:03.313Z,1006.87
2022-12-06T09:19:03.298Z,1006.90
2022-12-06T09:20:06.052Z,1006.87
2022-12-06T09:21:03.273Z,1006.90
2022-12-06T09:22:03.258Z,1006.93
2022-12-06T09:23:03.249Z,1006.91
2022-12-06T09:24:03.245Z,1006.94
2022-12-06T09:25:03.222Z,1006.89
2022-12-06T09:26:03.209Z,1006.92
2022-12-06T09:27:03.193Z,1006.94
2022-12-06T09:28:03.184Z,1006.92
2022-12-06T09:29:03.168Z,1006.93
2022-12-06T09:30:03.557Z,1006.95
2022-12-06T09:31:03.203Z,1006.98
2022-12-06T09:32:03.130Z,1006.92
2022-12-06T09:33:03.117Z,1006.97
2022-12-06T09:34:03.109Z,1006.97
2022-12-06T09:35:03.094Z,1006.97
2022-12-06T09:36:03.080Z,1006.98
2022-12-06T09:37:03.065Z,1006.98
2022-12-06T09:38:03.056Z,1007.01
2022-12-06T09:39:03.045Z,1006.98
2022-12-06T09:40:03.361Z,1007.02
2022-12-06T09:41:03.019Z,1007.04
2022-12-06T09:42:03.003Z,1007.07
2022-12-06T09:43:02.996Z,1007.06
2022-12-06T09:44:02.985Z,1007.07
2022-12-06T09:45:02.969Z,1007.09
2022-12-06T09:46:02.984Z,1007.13
2022-12-06T09:47:02.940Z,1007.12
2022-12-06T09:48:02.933Z,1007.17
2022-12-06T09:49:02.915Z,1007.18
2022-12-06T09:50:03.124Z,1007.20
2022-12-06T09:51:02.893Z,1007.24
2022-12-06T09:52:02.879Z,1007.22
2022-12-06T09:53:02.871Z,1007.24
2022-12-06T09:54:02.869Z,1007.23
2022-12-06T09:55:02.838Z,1007.18
2022-12-06T09:56:02.827Z,1007.20
2022-12-06T09:57:02.816Z,1007.17
2022-12-06T09:58:02.804Z,1007.21
2022-12-06T09:59:02.788Z,1007.21
2022-12-06T10:00:05.169Z,1007.21
2022-12-06T10:01:02.779Z,1007.21
2022-12-06T10:02:02.805Z,1007.16
2022-12-06T10:03:02.830Z,1007.18
2022-12-06T10:04:02.729Z,1007.15
2022-12-06T10:05:02.729Z,1007.12
2022-12-06T10:06:02.748Z,1007.16
2022-12-06T10:07:02.689Z,1007.15
2022-12-06T10:08:02.777Z,1007.17
2022-12-06T10:09:02.798Z,1007.14
2022-12-06T10:10:02.953Z,1007.16
2022-12-06T10:11:08.312Z,1007.12
2022-12-06T10:12:02.631Z,1007.12
2022-12-06T10:13:02.615Z,1007.17
2022-12-06T10:14:02.604Z,1007.14
2022-12-06T10:15:02.591Z,1007.13
2022-12-06T10:16:02.660Z,1007.10
2022-12-06T10:17:02.564Z,1007.13
2022-12-06T10:18:02.558Z,1007.16
2022-12-06T10:19:02.539Z,1007.14
2022-12-06T10:20:02.710Z,1007.14
2022-12-06T10:21:02.517Z,1007.13
2022-12-06T10:22:02.504Z,1007.11
2022-12-06T10:23:02.494Z,1007.12
2022-12-06T10:24:02.536Z,1007.13
2022-12-06T10:25:02.469Z,1007.15
2022-12-06T10:26:02.454Z,1007.17
2022-12-06T10:27:02.442Z,1007.16
2022-12-06T10:28:02.437Z,1007.18
2022-12-06T10:29:02.414Z,1007.16
2022-12-06T10:30:02.623Z,1007.18
2022-12-06T10:31:02.504Z,1007.16
2022-12-06T10:32:02.379Z,1007.14
2022-12-06T10:33:02.364Z,1007.15
2022-12-06T10:34:02.353Z,1007.15
2022-12-06T10:35:02.557Z,1007.17
2022-12-06T10:36:02.329Z,1007.17
2022-12-06T10:37:02.318Z,1007.15
2022-12-06T10:38:02.308Z,1007.14
2022-12-06T10:39:02.290Z,1007.11
2022-12-06T10:40:02.674Z,1007.10
2022-12-06T10:41:02.263Z,1007.12
2022-12-06T10:42:02.255Z,1007.12
2022-12-06T10:43:02.243Z,1007.12
2022-12-06T10:44:02.232Z,1007.16
2022-12-06T10:45:02.222Z,1007.14
2022-12-06T10:46:08.499Z,1007.15
2022-12-06T10:47:02.213Z,1007.16
2022-12-06T10:48:02.183Z,1007.16
2022-12-06T10:49:02.170Z,1007.16
2022-12-06T10:50:02.358Z,1007.22
2022-12-06T10:51:02.143Z,1007.19
2022-12-06T10:52:02.139Z,1007.18
2022-12-06T10:53:02.443Z,1007.19
2022-12-06T10:54:02.105Z,1007.19
2022-12-06T10:55:02.094Z,1007.17
2022-12-06T10:56:02.086Z,1007.12
2022-12-06T10:57:02.069Z,1007.11
2022-12-06T10:58:02.059Z,1007.14
2022-12-06T10:59:02.045Z,1007.11
2022-12-06T11:00:06.951Z,1007.10
2022-12-06T11:01:02.096Z,1007.08
2022-12-06T11:02:02.029Z,1007.13
2022-12-06T11:03:01.999Z,1007.07
2022-12-06T11:04:01.984Z,1007.10
2022-12-06T11:05:01.972Z,1007.07
2022-12-06T11:06:01.966Z,1007.09
2022-12-06T11:07:01.946Z,1007.10
2022-12-06T11:08:01.952Z,1007.05
2022-12-06T11:09:01.920Z,1007.05
2022-12-06T11:10:02.261Z,1007.06
2022-12-06T11:11:01.895Z,1007.06
2022-12-06T11:12:01.885Z,1007.07
2022-12-06T11:13:01.873Z,1007.08
2022-12-06T11:14:01.860Z,1007.04
2022-12-06T11:15:01.850Z,1007.11
2022-12-06T11:16:01.856Z,1007.07
2022-12-06T11:17:01.822Z,1007.06
2022-12-06T11:18:02.771Z,1007.04
2022-12-06T11:19:01.798Z,1007.06
2022-12-06T11:20:02.224Z,1007.08
2022-12-06T11:21:01.781Z,1007.07
2022-12-06T11:22:01.763Z,1007.06
2022-12-06T11:23:01.749Z,1007.07
2022-12-06T11:24:01.742Z,1007.06
2022-12-06T11:25:01.728Z,1007.05
2022-12-06T11:26:01.718Z,1007.01
2022-12-06T11:27:01.703Z,1007.03
2022-12-06T11:28:01.684Z,1006.99
2022-12-06T11:29:01.677Z,1006.99
2022-12-06T11:30:01.817Z,1006.97
2022-12-06T11:31:01.688Z,1006.98
2022-12-06T11:32:01.717Z,1006.95
2022-12-06T11:33:01.632Z,1006.98
2022-12-06T11:34:01.619Z,1007.00
2022-12-06T11:35:01.607Z,1007.01
2022-12-06T11:36:01.597Z,1007.01
2022-12-06T11:37:01.582Z,1007.05
2022-12-06T11:38:01.575Z,1007.02
2022-12-06T11:39:01.555Z,1007.02
2022-12-06T11:40:01.816Z,1007.01
2022-12-06T11:41:01.537Z,1007.01
2022-12-06T11:42:01.523Z,1006.98
2022-12-06T11:43:01.523Z,1006.97
2022-12-06T11:44:01.502Z,1006.95
2022-12-06T11:45:01.765Z,1006.95
2022-12-06T11:46:01.475Z,1006.95
2022-12-06T11:47:01.483Z,1006.96
2022-12-06T11:48:01.455Z,1006.94
2022-12-06T11:49:01.442Z,1006.90
2022-12-06T11:50:07.843Z,1006.92
2022-12-06T11:51:01.416Z,1006.91
2022-12-06T11:52:01.405Z,1006.90
2022-12-06T11:53:01.394Z,1006.91
2022-12-06T11:54:01.378Z,1006.88
2022-12-06T11:55:01.640Z,1006.93
2022-12-06T11:56:01.358Z,1006.92
2022-12-06T11:57:01.344Z,1006.90
2022-12-06T11:58:01.333Z,1006.89
2022-12-06T11:59:01.322Z,1006.90
2022-12-06T12:00:01.718Z,1006.89
2022-12-06T12:01:01.296Z,1006.87
2022-12-06T12:02:01.350Z,1006.87
2022-12-06T12:03:01.357Z,1006.86
2022-12-06T12:04:01.261Z,1006.88
2022-12-06T12:05:01.575Z,1006.82